Time;durP1;ratioP1;P1;durP2;ratioP2;P2;SDS_P1;SDS_P2;PMS_P1;PMS_P2;Temp;Humidity;BMP_temperature;BMP_pressure;BME280_temperature;BME280_humidity;BME280_pressure;Samples;Min_cycle;Max_cycle;Signal;HPM_P1;HPM_P2
2022/08/28 04:02:08;;;;;;;16.45;4.40;;;12.20;99.90;;;;;;5154998;23;20047;-82
2022/08/28 04:04:34;;;;;;;9.27;4.35;;;12.10;99.90;;;;;;4907073;29;20052;-84
2022/08/28 04:07:00;;;;;;;9.32;4.43;;;12.10;99.90;;;;;;4922615;29;20043;-84
2022/08/28 04:09:25;;;;;;;9.88;4.53;;;12.10;99.90;;;;;;4922223;29;20044;-81
2022/08/28 04:11:52;;;;;;;8.10;4.07;;;12.10;99.90;;;;;;4922152;29;20051;-82
2022/08/28 04:14:18;;;;;;;15.95;4.85;;;12.10;99.90;;;;;;4921949;29;20051;-81
2022/08/28 04:16:43;;;;;;;16.13;5.03;;;12.10;99.90;;;;;;4921787;29;20055;-83
2022/08/28 04:19:09;;;;;;;7.88;3.97;;;12.00;99.90;;;;;;4922004;29;20098;-84
2022/08/28 04:21:38;;;;;;;12.50;5.03;;;12.00;99.90;;;;;;4921793;29;20122;-82
2022/08/28 04:24:07;;;;;;;12.07;4.35;;;12.10;99.90;;;;;;4939165;29;20500;-80
2022/08/28 04:26:35;;;;;;;13.25;5.07;;;12.00;99.90;;;;;;4938920;29;20082;-82
2022/08/28 04:29:03;;;;;;;9.23;4.57;;;12.00;99.90;;;;;;4921983;29;20519;-83
2022/08/28 04:31:29;;;;;;;12.32;4.25;;;12.00;99.90;;;;;;4921530;29;20059;-85
2022/08/28 04:33:54;;;;;;;6.95;3.90;;;12.00;99.90;;;;;;4938748;29;20063;-82
2022/08/28 04:36:20;;;;;;;9.70;3.97;;;12.00;99.90;;;;;;4922107;29;20090;-83
2022/08/28 04:38:47;;;;;;;9.30;4.85;;;12.00;99.90;;;;;;4921491;29;20040;-82
2022/08/28 04:41:15;;;;;;;8.35;3.75;;;12.00;99.90;;;;;;4905421;29;20050;-83
2022/08/28 04:43:42;;;;;;;7.28;4.10;;;12.00;99.90;;;;;;4922172;29;20103;-84
2022/08/28 04:46:11;;;;;;;8.35;3.63;;;12.00;99.90;;;;;;4921103;29;20048;-83
2022/08/28 04:48:38;;;;;;;10.95;3.15;;;12.10;99.90;;;;;;4921556;29;20171;-82
2022/08/28 04:51:05;;;;;;;8.57;4.00;;;12.10;99.90;;;;;;4921454;29;20103;-83
2022/08/28 04:53:31;;;;;;;9.52;3.85;;;12.10;99.90;;;;;;4937640;29;20036;-83
2022/08/28 04:55:59;;;;;;;16.67;4.45;;;12.10;99.90;;;;;;4921505;29;20514;-82
2022/08/28 04:58:25;;;;;;;8.95;4.20;;;12.20;99.90;;;;;;4921185;29;20051;-81
2022/08/28 05:00:53;;;;;;;8.27;3.58;;;12.20;99.90;;;;;;4920836;29;20079;-84
2022/08/28 05:03:19;;;;;;;10.63;4.13;;;12.20;99.90;;;;;;4921269;29;20039;-82
2022/08/28 05:05:50;;;;;;;10.10;3.65;;;12.20;99.90;;;;;;4920936;29;20079;-81
2022/08/28 05:08:17;;;;;;;12.07;4.70;;;12.10;99.90;;;;;;4920853;29;20102;-83
2022/08/28 05:10:44;;;;;;;9.88;4.13;;;12.20;99.90;;;;;;4920730;29;20075;-81
2022/08/28 05:13:11;;;;;;;10.95;3.90;;;12.10;99.90;;;;;;4937845;29;20072;-84
2022/08/28 05:15:38;;;;;;;9.45;3.85;;;12.10;99.90;;;;;;4920963;29;20054;-83
2022/08/28 05:18:05;;;;;;;10.32;4.15;;;12.00;99.90;;;;;;4905102;29;20052;-82
2022/08/28 05:20:35;;;;;;;15.32;4.50;;;12.00;99.90;;;;;;4920740;29;20126;-84
2022/08/28 05:23:02;;;;;;;13.45;4.75;;;11.90;99.90;;;;;;4937800;29;20054;-82
2022/08/28 05:25:28;;;;;;;10.75;4.40;;;12.00;99.90;;;;;;4920952;29;20062;-82
2022/08/28 05:27:54;;;;;;;11.43;4.70;;;11.90;99.90;;;;;;4921160;29;20043;-83
2022/08/28 05:30:19;;;;;;;8.18;4.18;;;11.90;99.90;;;;;;4937937;29;20554;-83
2022/08/28 05:32:45;;;;;;;11.48;5.00;;;11.90;99.90;;;;;;4920515;29;20051;-83
2022/08/28 05:35:11;;;;;;;10.60;3.90;;;11.90;99.90;;;;;;4920465;29;20071;-83
2022/08/28 05:37:37;;;;;;;9.20;3.88;;;12.00;99.90;;;;;;4921741;29;20052;-83
2022/08/28 05:40:03;;;;;;;10.75;4.40;;;12.00;99.90;;;;;;4925154;29;20095;-82
2022/08/28 05:42:29;;;;;;;13.57;4.50;;;12.00;99.90;;;;;;4924324;29;20092;-81
2022/08/28 05:44:57;;;;;;;9.50;4.20;;;12.00;99.90;;;;;;4947173;29;20082;-77
2022/08/28 05:47:23;;;;;;;8.70;3.92;;;12.10;99.90;;;;;;4950504;29;20040;-77
2022/08/28 05:49:49;;;;;;;8.80;3.85;;;12.10;99.90;;;;;;4929016;29;20062;-83
2022/08/28 05:52:15;;;;;;;11.35;4.20;;;12.20;99.90;;;;;;4905992;29;20139;-83
2022/08/28 05:54:42;;;;;;;12.68;4.10;;;12.30;99.90;;;;;;4921225;29;20079;-82
2022/08/28 05:57:08;;;;;;;9.82;3.85;;;12.30;99.90;;;;;;4937883;29;20119;-82
2022/08/28 05:59:33;;;;;;;10.48;3.65;;;12.40;99.90;;;;;;4920599;29;20079;-82
2022/08/28 06:01:59;;;;;;;10.00;3.90;;;12.40;99.90;;;;;;4937275;29;20114;-82
2022/08/28 06:04:26;;;;;;;12.30;3.80;;;12.40;99.90;;;;;;4920405;29;20058;-84
2022/08/28 06:06:52;;;;;;;10.30;3.70;;;12.50;99.90;;;;;;4937546;29;20043;-83
2022/08/28 06:09:26;;;;;;;12.20;3.60;;;12.50;99.90;;;;;;4920572;29;20154;-84
2022/08/28 06:11:54;;;;;;;10.00;3.40;;;12.60;99.90;;;;;;4937342;29;20055;-81
2022/08/28 06:14:20;;;;;;;16.33;3.58;;;12.60;99.90;;;;;;4920211;29;20078;-82
2022/08/28 06:16:51;;;;;;;9.18;3.20;;;12.60;99.90;;;;;;4920291;29;20071;-83
2022/08/28 06:19:19;;;;;;;13.18;3.70;;;12.70;99.90;;;;;;4920103;29;20043;-81
2022/08/28 06:21:46;;;;;;;14.13;4.65;;;12.80;99.90;;;;;;4919975;29;20047;-83
2022/08/28 06:24:12;;;;;;;10.05;3.00;;;12.80;99.90;;;;;;4919961;29;20066;-83
2022/08/28 06:26:40;;;;;;;7.75;3.45;;;12.90;99.90;;;;;;4920210;29;20491;-82
2022/08/28 06:29:21;;;;;;;8.25;2.78;;;13.00;99.90;;;;;;4919773;29;20039;-83
2022/08/28 06:31:51;;;;;;;8.98;3.20;;;13.00;99.90;;;;;;4936939;29;20051;-81
2022/08/28 06:34:17;;;;;;;6.93;2.97;;;13.10;99.90;;;;;;4919682;29;20048;-83
2022/08/28 06:36:43;;;;;;;18.95;3.22;;;13.20;99.90;;;;;;4904351;29;20051;-84
2022/08/28 06:39:11;;;;;;;10.98;2.90;;;13.30;99.90;;;;;;4920165;29;20506;-82
2022/08/28 06:41:39;;;;;;;9.80;3.10;;;13.40;99.90;;;;;;4920182;29;20035;-84
2022/08/28 06:44:06;;;;;;;7.72;2.13;;;13.50;99.90;;;;;;4920341;29;20051;-83
2022/08/28 06:46:33;;;;;;;7.72;2.20;;;13.60;99.90;;;;;;4920221;29;20488;-84
2022/08/28 06:49:02;;;;;;;11.75;3.00;;;13.70;99.90;;;;;;4920109;29;20086;-83
2022/08/28 06:51:27;;;;;;;10.65;3.22;;;13.70;99.90;;;;;;4936867;29;20118;-82
2022/08/28 06:53:53;;;;;;;7.05;2.00;;;13.80;99.90;;;;;;4919750;29;20131;-82
2022/08/28 06:56:19;;;;;;;9.43;2.33;;;13.90;99.90;;;;;;4920121;29;20044;-81
2022/08/28 06:58:48;;;;;;;6.72;1.95;;;14.10;99.90;;;;;;4919122;29;20047;-82
2022/08/28 07:01:24;;;;;;;11.68;2.30;;;14.20;99.90;;;;;;4919328;29;20040;-82
2022/08/28 07:03:51;;;;;;;12.20;2.22;;;14.20;99.90;;;;;;4919794;29;20047;-82
2022/08/28 07:06:19;;;;;;;8.75;1.75;;;14.30;99.90;;;;;;4920321;29;20039;-83
2022/08/28 07:08:45;;;;;;;6.35;1.90;;;14.50;99.90;;;;;;4937146;29;20096;-82
2022/08/28 07:11:17;;;;;;;7.68;1.95;;;14.60;99.90;;;;;;4919299;29;20075;-83
2022/08/28 07:13:44;;;;;;;5.72;1.73;;;14.70;99.90;;;;;;4919227;29;20047;-81
2022/08/28 07:16:11;;;;;;;8.02;1.77;;;14.70;99.90;;;;;;4938352;29;20152;-82
2022/08/28 07:18:37;;;;;;;7.32;1.60;;;14.80;99.90;;;;;;4907496;29;20047;-82
2022/08/28 07:21:04;;;;;;;8.25;1.88;;;14.90;99.90;;;;;;4940022;29;20040;-82
2022/08/28 07:23:30;;;;;;;7.13;1.83;;;15.00;99.90;;;;;;4923152;29;20492;-82
2022/08/28 07:25:56;;;;;;;8.82;1.65;;;15.10;99.90;;;;;;4923409;29;20043;-81
2022/08/28 07:28:22;;;;;;;6.95;1.88;;;15.20;99.90;;;;;;4940301;29;20048;-81
2022/08/28 07:30:57;;;;;;;8.90;1.52;;;15.20;99.90;;;;;;4940082;29;20046;-81
2022/08/28 07:33:23;;;;;;;5.78;1.67;;;15.30;99.90;;;;;;4922674;29;20043;-83
2022/08/28 07:35:49;;;;;;;8.32;1.73;;;15.40;99.90;;;;;;4923803;29;20118;-83
2022/08/28 07:38:15;;;;;;;4.30;1.40;;;15.50;99.90;;;;;;4937054;29;20497;-82
2022/08/28 07:40:41;;;;;;;8.75;1.90;;;15.70;99.90;;;;;;4907383;29;20039;-82
2022/08/28 07:46:04;;;;;;;6.07;1.95;;;15.80;99.90;;;;;;4922277;29;20051;-83
2022/08/28 07:48:29;;;;;;;8.48;1.60;;;15.90;99.90;;;;;;4907145;29;20048;-83
2022/08/28 07:50:55;;;;;;;8.52;2.13;;;15.90;99.90;;;;;;4939281;29;20035;-82
2022/08/28 07:53:21;;;;;;;9.00;1.80;;;16.10;99.90;;;;;;4906787;29;20043;-82
2022/08/28 07:55:49;;;;;;;7.00;1.50;;;16.10;99.90;;;;;;4922767;29;20051;-81
2022/08/28 07:58:16;;;;;;;10.05;1.58;;;16.20;99.90;;;;;;4923236;29;20040;-82
2022/08/28 08:00:42;;;;;;;6.45;1.52;;;16.30;99.90;;;;;;4922862;29;20075;-83
2022/08/28 08:03:07;;;;;;;8.82;1.60;;;16.40;99.90;;;;;;4922709;29;20074;-83
2022/08/28 08:05:33;;;;;;;7.38;1.58;;;16.50;99.90;;;;;;4939602;29;20072;-83
2022/08/28 08:07:58;;;;;;;5.63;1.77;;;16.70;99.90;;;;;;4922327;29;20476;-81
2022/08/28 08:10:24;;;;;;;4.80;1.25;;;16.90;99.90;;;;;;4939943;29;20040;-83
2022/08/28 08:12:51;;;;;;;9.48;1.50;;;17.10;99.90;;;;;;4922594;29;20484;-82
2022/08/28 08:15:17;;;;;;;5.20;1.55;;;17.30;99.90;;;;;;4922523;29;20179;-81
2022/08/28 08:17:43;;;;;;;8.48;1.75;;;17.40;99.90;;;;;;4939152;29;20118;-82
2022/08/28 08:20:10;;;;;;;9.30;1.98;;;17.50;99.90;;;;;;4906627;29;20044;-83
2022/08/28 08:22:36;;;;;;;5.60;1.58;;;17.60;99.90;;;;;;4906165;29;20046;-83
2022/08/28 08:25:04;;;;;;;5.50;1.67;;;17.60;99.90;;;;;;4939077;29;20123;-82
2022/08/28 08:27:31;;;;;;;5.00;1.73;;;17.60;99.90;;;;;;4921525;29;20055;-81
2022/08/28 08:29:57;;;;;;;5.90;1.60;;;17.60;99.90;;;;;;4921485;29;20510;-81
2022/08/28 08:32:23;;;;;;;7.75;1.60;;;17.60;99.90;;;;;;4904814;29;20052;-82
2022/08/28 08:34:54;;;;;;;4.55;1.60;;;17.60;99.90;;;;;;4920010;29;20535;-85
2022/08/28 08:37:20;;;;;;;4.07;1.30;;;17.60;99.90;;;;;;4902515;29;20052;-82
2022/08/28 08:39:46;;;;;;;5.70;1.38;;;17.70;99.90;;;;;;4902620;29;20379;-83
2022/08/28 08:42:26;;;;;;;5.68;1.45;;;17.70;99.90;;;;;;4902769;29;20130;-83
2022/08/28 08:44:55;;;;;;;8.07;1.50;;;17.80;99.90;;;;;;4902887;29;20047;-85
2022/08/28 08:47:42;;;;;;;6.57;1.58;;;17.90;99.90;;;;;;4902751;29;20048;-81
2022/08/28 08:50:19;;;;;;;8.02;1.75;;;18.00;99.90;;;;;;4902743;29;20040;-83
2022/08/28 08:53:08;;;;;;;7.60;1.60;;;18.10;99.90;;;;;;4902550;29;20059;-81
2022/08/28 08:55:43;;;;;;;3.67;1.30;;;18.30;99.90;;;;;;4902548;29;20084;-82
2022/08/28 08:58:15;;;;;;;;;;;18.40;99.90;;;;;;4902948;29;20056;-82
2022/08/28 09:01:02;;;;;;;6.70;1.55;;;18.40;99.90;;;;;;4902829;29;20340;-84
2022/08/28 09:03:59;;;;;;;6.22;1.80;;;18.30;99.90;;;;;;4902106;29;20040;-83
2022/08/28 09:06:48;;;;;;;7.10;1.60;;;18.10;99.90;;;;;;4897998;29;20519;-80
2022/08/28 09:09:55;;;;;;;6.57;1.50;;;18.00;99.90;;;;;;4911911;29;20053;-84
2022/08/28 09:12:23;;;;;;;6.00;1.55;;;18.00;99.90;;;;;;4827489;29;20080;-83
2022/08/28 09:15:07;;;;;;;4.88;1.45;;;17.90;99.90;;;;;;4827443;29;20049;-82
2022/08/28 09:17:47;;;;;;;8.68;1.50;;;18.10;99.90;;;;;;4882368;29;20416;-82
2022/08/28 09:20:21;;;;;;;6.22;1.85;;;18.30;99.90;;;;;;4886900;29;20043;-82
2022/08/28 09:22:47;;;;;;;7.07;2.67;;;18.50;99.90;;;;;;4902012;29;20042;-81
2022/08/28 09:25:48;;;;;;;7.03;1.60;;;18.60;99.90;;;;;;4918935;29;20040;-84
2022/08/28 09:28:22;;;;;;;5.40;1.85;;;18.60;99.90;;;;;;4902251;29;20103;-81
2022/08/28 09:30:59;;;;;;;8.85;1.52;;;18.60;99.90;;;;;;4901984;29;20047;-81
2022/08/28 09:33:41;;;;;;;8.70;2.35;;;18.50;99.90;;;;;;4883263;29;20053;-84
2022/08/28 09:36:26;;;;;;;6.15;1.50;;;18.70;99.90;;;;;;4883466;29;20052;-83
2022/08/28 09:39:04;;;;;;;5.22;2.03;;;19.00;99.90;;;;;;4899822;29;20556;-83
2022/08/28 09:44:14;;;;;;;5.45;1.90;;;19.30;99.90;;;;;;4883175;29;20044;-83
2022/08/28 09:46:50;;;;;;;6.25;1.50;;;19.20;99.90;;;;;;4900041;29;20051;-82
2022/08/28 09:49:28;;;;;;;4.57;1.50;;;19.10;99.90;;;;;;4899761;29;20480;-84
2022/08/28 09:51:58;;;;;;;8.73;1.50;;;19.00;99.90;;;;;;4882920;29;20041;-84
2022/08/28 09:54:40;;;;;;;5.82;1.80;;;18.80;99.90;;;;;;4898688;29;20079;-83
2022/08/28 09:57:06;;;;;;;7.38;1.67;;;18.70;99.90;;;;;;4899361;29;20505;-82
2022/08/28 09:59:32;;;;;;;8.10;2.08;;;18.70;99.90;;;;;;4899597;29;20028;-84
2022/08/28 10:02:32;;;;;;;11.65;2.30;;;18.80;99.90;;;;;;4882169;29;20480;-84
2022/08/28 10:05:07;;;;;;;6.93;1.63;;;19.00;99.90;;;;;;4878258;29;20049;-82
2022/08/28 10:07:49;;;;;;;7.40;1.70;;;19.50;99.90;;;;;;4882362;29;20060;-82
2022/08/28 10:10:17;;;;;;;8.50;2.20;;;19.60;99.90;;;;;;4882272;29;20475;-80
2022/08/28 10:12:58;;;;;;;7.68;1.67;;;19.60;99.90;;;;;;4906313;29;20119;-84
2022/08/28 10:15:41;;;;;;;9.15;1.90;;;19.40;99.90;;;;;;4917821;29;20127;-81
2022/08/28 10:18:25;;;;;;;7.53;1.58;;;19.20;99.90;;;;;;4901349;29;20067;-82
2022/08/28 10:21:00;;;;;;;5.68;1.58;;;19.20;99.90;;;;;;4918986;29;20388;-85
2022/08/28 10:24:07;;;;;;;5.38;1.33;;;19.40;99.90;;;;;;4901677;29;20052;-81
2022/08/28 10:26:41;;;;;;;6.13;1.50;;;19.50;99.90;;;;;;4841497;29;20042;-83
2022/08/28 10:29:17;;;;;;;6.20;1.80;;;19.40;99.90;;;;;;4826310;29;20046;-83
2022/08/28 10:32:02;;;;;;;4.13;1.67;;;19.40;99.90;;;;;;4888565;29;20787;-82
2022/08/28 10:35:01;;;;;;;7.75;1.98;;;19.40;99.90;;;;;;4883842;29;20039;-81
2022/08/28 10:37:46;;;;;;;6.78;1.67;;;19.40;99.90;;;;;;4900740;29;20044;-83
2022/08/28 10:40:27;;;;;;;7.60;1.50;;;19.40;99.90;;;;;;4901333;29;20051;-83
2022/08/28 10:43:04;;;;;;;4.53;1.60;;;19.50;99.90;;;;;;4918476;29;20442;-81
2022/08/28 10:45:33;;;;;;;5.13;1.50;;;19.70;99.90;;;;;;4901664;29;20430;-82
2022/08/28 10:48:18;;;;;;;4.80;1.50;;;19.90;99.90;;;;;;4932496;29;20059;-84
2022/08/28 10:51:01;;;;;;;6.10;1.50;;;20.30;99.90;;;;;;4900117;29;20425;-84
2022/08/28 10:53:30;;;;;;;7.15;1.40;;;20.40;99.90;;;;;;4910243;29;20044;-83
2022/08/28 10:56:01;;;;;;;5.85;1.48;;;20.60;99.90;;;;;;4917808;29;20051;-82
2022/08/28 10:58:29;;;;;;;5.28;1.50;;;20.80;99.90;;;;;;4900730;29;20111;-84
2022/08/28 11:01:01;;;;;;;6.65;1.70;;;21.00;99.90;;;;;;4917574;29;20040;-83
2022/08/28 11:03:29;;;;;;;6.28;1.90;;;21.20;99.90;;;;;;4900222;29;20078;-82
2022/08/28 11:06:04;;;;;;;5.32;1.40;;;21.30;99.90;;;;;;4917463;29;20048;-83
2022/08/28 11:08:35;;;;;;;7.00;1.73;;;21.40;99.90;;;;;;4917399;29;20056;-82
2022/08/28 11:11:05;;;;;;;4.63;1.40;;;21.30;99.90;;;;;;4900122;29;20560;-83
2022/08/28 11:13:43;;;;;;;4.90;1.30;;;21.10;99.90;;;;;;4900372;29;20194;-83
2022/08/28 11:16:16;;;;;;;4.45;1.20;;;20.80;99.90;;;;;;4900187;29;20048;-83
2022/08/28 11:18:50;;;;;;;3.83;1.40;;;20.70;99.90;;;;;;4900023;29;20555;-82
2022/08/28 11:21:26;;;;;;;3.88;1.40;;;20.90;99.90;;;;;;4899977;29;20413;-82
2022/08/28 11:24:22;;;;;;;5.43;1.63;;;21.20;99.90;;;;;;4899921;29;20076;-85
2022/08/28 11:27:17;;;;;;;4.68;1.33;;;21.50;99.90;;;;;;4916983;29;20048;-82
2022/08/28 11:30:05;;;;;;;7.40;1.65;;;21.40;99.90;;;;;;4900021;29;20044;-82
2022/08/28 11:32:30;;;;;;;6.55;1.65;;;21.10;99.90;;;;;;4899924;29;20175;-80
2022/08/28 11:35:00;;;;;;;9.23;1.45;;;20.80;99.90;;;;;;4917678;29;20123;-82
2022/08/28 11:37:43;;;;;;;4.85;1.40;;;20.60;99.90;;;;;;4932087;29;20071;-85
2022/08/28 11:40:16;;;;;;;7.45;1.80;;;20.40;99.90;;;;;;4884569;29;20083;-85
2022/08/28 11:42:42;;;;;;;6.38;1.70;;;20.30;99.90;;;;;;4915897;29;20044;-83
2022/08/28 11:45:18;;;;;;;9.25;2.03;;;20.40;99.90;;;;;;4918847;29;20115;-83
2022/08/28 11:47:52;;;;;;;6.15;1.73;;;20.80;99.90;;;;;;4900774;29;20052;-84
2022/08/28 11:50:26;;;;;;;5.22;1.30;;;20.90;99.90;;;;;;4921097;29;20488;-82
2022/08/28 11:53:27;;;;;;;4.22;1.48;;;20.80;99.90;;;;;;4911702;29;20054;-79
2022/08/28 11:56:12;;;;;;;3.88;1.50;;;20.70;99.90;;;;;;4896476;29;20060;-80
2022/08/28 11:59:16;;;;;;;5.53;1.40;;;20.90;99.90;;;;;;4902141;29;20044;-82
2022/08/28 12:01:42;;;;;;;4.45;1.58;;;21.30;99.90;;;;;;4901881;29;20400;-83
2022/08/28 12:04:19;;;;;;;4.68;1.48;;;21.60;99.90;;;;;;4904120;29;20574;-83
2022/08/28 12:06:46;;;;;;;5.63;1.52;;;21.60;99.90;;;;;;4904009;29;20404;-84
2022/08/28 12:09:37;;;;;;;4.25;1.42;;;21.30;99.90;;;;;;4921144;29;20388;-84
2022/08/28 12:12:31;;;;;;;5.90;2.00;;;21.00;99.90;;;;;;4915311;29;20056;-79
2022/08/28 12:15:03;;;;;;;3.00;1.45;;;21.10;99.90;;;;;;4935345;29;20429;-79
2022/08/28 12:17:43;;;;;;;7.60;2.33;;;21.10;99.90;;;;;;4903260;29;20456;-81
2022/08/28 12:20:22;;;;;;;5.72;1.83;;;20.90;99.90;;;;;;4887928;29;20047;-80
2022/08/28 12:22:55;;;;;;;7.05;2.20;;;20.80;99.90;;;;;;4902924;29;20059;-80
2022/08/28 12:25:29;;;;;;;3.90;1.40;;;20.70;99.90;;;;;;4920123;29;20523;-82
2022/08/28 12:27:57;;;;;;;8.98;2.03;;;20.60;99.90;;;;;;4918898;29;20048;-80
2022/08/28 12:30:55;;;;;;;5.20;1.50;;;20.90;99.90;;;;;;4934455;29;20083;-80
2022/08/28 12:33:56;;;;;;;3.70;1.25;;;21.30;99.90;;;;;;4904314;29;20412;-81
2022/08/28 12:36:27;;;;;;;5.65;1.60;;;21.80;99.90;;;;;;4883108;29;20200;-81
2022/08/28 12:38:56;;;;;;;4.97;1.42;;;22.00;99.90;;;;;;4902853;29;20051;-81
2022/08/28 12:41:26;;;;;;;5.95;2.00;;;22.30;99.90;;;;;;4920240;29;20040;-81
2022/08/28 12:43:59;;;;;;;5.53;1.45;;;22.40;99.90;;;;;;4902506;29;20037;-80
2022/08/28 12:46:28;;;;;;;3.22;1.30;;;22.50;99.90;;;;;;4902850;29;20047;-84
2022/08/28 12:49:00;;;;;;;5.22;1.30;;;22.70;99.90;;;;;;4934493;29;20500;-81
2022/08/28 12:51:31;;;;;;;5.57;1.38;;;22.70;99.90;;;;;;4919498;29;20055;-81
2022/08/28 12:54:00;;;;;;;7.40;1.92;;;22.50;99.90;;;;;;4902215;29;20048;-82
2022/08/28 12:56:28;;;;;;;5.82;1.40;;;22.50;99.90;;;;;;4886905;29;20044;-80
2022/08/28 12:58:55;;;;;;;5.45;1.63;;;22.60;99.90;;;;;;4886516;29;20051;-81
2022/08/28 13:01:30;;;;;;;6.10;1.30;;;22.60;99.90;;;;;;4934333;29;20055;-84
2022/08/28 13:04:03;;;;;;;;;;;22.50;99.90;;;;;;4920255;29;20036;-84
2022/08/28 13:06:39;;;;;;;4.45;1.33;;;22.20;99.90;;;;;;4902810;29;19922;-85
2022/08/28 13:09:15;;;;;;;3.58;1.20;;;22.00;99.50;;;;;;4903528;29;20047;-85
2022/08/28 13:11:47;;;;;;;4.90;1.50;;;21.80;99.80;;;;;;4919554;29;20040;-83
2022/08/28 13:14:32;;;;;;;4.03;1.05;;;22.00;99.90;;;;;;4886590;29;20067;-82
2022/08/28 13:16:58;;;;;;;3.78;1.50;;;22.20;99.90;;;;;;4901915;29;20052;-82
2022/08/28 13:19:26;;;;;;;4.35;1.35;;;22.60;99.90;;;;;;4919620;29;20046;-82
2022/08/28 13:22:00;;;;;;;4.95;1.02;;;22.80;99.90;;;;;;4902303;29;20039;-83
2022/08/28 13:24:42;;;;;;;4.43;0.90;;;23.00;99.70;;;;;;4919627;29;20044;-82
2022/08/28 13:27:10;;;;;;;3.38;1.30;;;23.10;98.50;;;;;;4919570;29;20392;-83
2022/08/28 13:29:46;;;;;;;3.72;1.17;;;23.20;97.90;;;;;;4918928;29;20127;-83
2022/08/28 13:32:16;;;;;;;3.78;1.30;;;23.30;97.60;;;;;;4919205;29;20119;-83
2022/08/28 13:35:11;;;;;;;2.60;1.05;;;23.50;98.30;;;;;;4934023;29;20048;-84
2022/08/28 13:37:49;;;;;;;5.78;1.00;;;23.80;97.00;;;;;;4902335;29;20399;-82
2022/08/28 13:40:21;;;;;;;6.43;1.00;;;23.40;96.60;;;;;;4933791;29;20052;-82
2022/08/28 13:42:47;;;;;;;2.97;1.00;;;23.20;97.30;;;;;;4919509;29;20437;-81
2022/08/28 13:45:14;;;;;;;3.58;1.33;;;22.90;97.90;;;;;;4918900;29;20032;-83
2022/08/28 13:47:39;;;;;;;2.65;1.10;;;22.70;98.40;;;;;;4902215;29;20044;-82
2022/08/28 13:50:06;;;;;;;4.57;1.20;;;22.50;98.60;;;;;;4919161;29;20048;-84
2022/08/28 13:52:33;;;;;;;3.03;1.20;;;22.40;98.60;;;;;;4919386;29;20051;-81
2022/08/28 13:55:00;;;;;;;5.88;1.30;;;22.30;98.70;;;;;;4919493;29;20036;-80
2022/08/28 13:57:26;;;;;;;4.32;1.00;;;22.20;99.20;;;;;;4902427;29;20400;-81
2022/08/28 13:59:53;;;;;;;4.90;1.00;;;22.20;99.40;;;;;;4919150;29;20111;-84
2022/08/28 14:05:04;;;;;;;3.08;1.08;;;22.70;99.70;;;;;;4899014;29;20098;-81
2022/08/28 14:07:30;;;;;;;2.50;1.20;;;22.70;99.60;;;;;;4901992;29;20060;-82
2022/08/28 14:09:56;;;;;;;2.83;1.10;;;22.70;99.20;;;;;;4901434;29;20048;-83
2022/08/28 14:12:22;;;;;;;3.92;1.15;;;22.80;99.40;;;;;;4932984;29;20177;-84
2022/08/28 14:14:47;;;;;;;3.90;1.05;;;23.00;99.00;;;;;;4918188;29;20096;-82
2022/08/28 14:17:13;;;;;;;4.05;1.48;;;23.10;98.60;;;;;;4901439;29;20103;-79
2022/08/28 14:19:39;;;;;;;5.68;1.10;;;23.10;98.80;;;;;;4901265;29;20079;-83
2022/08/28 14:22:05;;;;;;;3.78;1.13;;;23.00;99.00;;;;;;4901732;29;20050;-82
2022/08/28 14:24:31;;;;;;;4.05;1.00;;;22.70;98.90;;;;;;4901328;29;20036;-80
2022/08/28 14:26:57;;;;;;;4.45;1.45;;;22.40;98.90;;;;;;4918231;29;20046;-80
2022/08/28 14:29:23;;;;;;;4.20;1.33;;;22.20;99.70;;;;;;4918235;29;20044;-78
2022/08/28 14:31:49;;;;;;;2.60;0.90;;;22.00;99.90;;;;;;4900941;29;20044;-84
2022/08/28 14:34:20;;;;;;;4.20;1.08;;;21.90;99.90;;;;;;4932787;29;20039;-82
2022/08/28 14:36:49;;;;;;;4.82;1.30;;;21.80;99.90;;;;;;4901289;29;20060;-82
2022/08/28 14:39:16;;;;;;;5.43;1.20;;;21.80;99.90;;;;;;4901489;29;20088;-82
2022/08/28 14:41:45;;;;;;;3.10;1.02;;;21.70;99.90;;;;;;4918423;29;20044;-81
2022/08/28 14:44:12;;;;;;;4.18;1.30;;;21.80;99.90;;;;;;4885840;29;20040;-80
2022/08/28 14:46:38;;;;;;;4.78;1.10;;;21.80;99.90;;;;;;4901235;29;20144;-81
2022/08/28 14:49:07;;;;;;;5.03;1.00;;;21.70;99.90;;;;;;4932927;29;20087;-82
2022/08/28 14:51:34;;;;;;;3.55;1.08;;;21.70;99.90;;;;;;4901296;29;20047;-82
2022/08/28 14:54:00;;;;;;;8.38;1.88;;;21.60;99.90;;;;;;4919131;29;20040;-81
2022/08/28 14:56:27;;;;;;;3.65;1.10;;;21.60;99.90;;;;;;4885305;29;20126;-81
2022/08/28 14:58:54;;;;;;;3.28;1.17;;;21.50;99.90;;;;;;4900742;29;20048;-80
2022/08/28 15:01:23;;;;;;;5.32;1.20;;;21.40;99.90;;;;;;4917328;29;20044;-84
2022/08/28 15:03:49;;;;;;;5.80;1.30;;;21.40;99.90;;;;;;4900779;29;20096;-80
2022/08/28 15:06:15;;;;;;;4.15;1.25;;;21.50;99.90;;;;;;4884850;29;20473;-81
2022/08/28 15:08:41;;;;;;;8.05;1.35;;;21.50;99.90;;;;;;4900404;29;20135;-80
2022/08/28 15:11:09;;;;;;;7.38;1.40;;;21.40;99.90;;;;;;4900404;29;20127;-85
2022/08/28 15:13:35;;;;;;;4.40;1.30;;;21.40;99.90;;;;;;4884984;29;20052;-82
2022/08/28 15:16:04;;;;;;;4.55;1.70;;;21.30;99.90;;;;;;4900383;29;20051;-82
2022/08/28 15:18:30;;;;;;;4.60;1.30;;;21.10;99.90;;;;;;4931850;29;20099;-84
2022/08/28 15:20:56;;;;;;;2.88;1.02;;;21.10;99.90;;;;;;4900604;29;20433;-82
2022/08/28 15:23:22;;;;;;;4.70;1.33;;;21.00;99.90;;;;;;4900781;29;20044;-80
2022/08/28 15:25:47;;;;;;;4.63;1.23;;;21.00;99.90;;;;;;4917445;29;20037;-81
2022/08/28 15:28:13;;;;;;;6.35;1.27;;;21.00;99.90;;;;;;4900537;29;20100;-83
2022/08/28 15:30:45;;;;;;;4.60;1.15;;;20.90;99.90;;;;;;4900194;29;20100;-81
2022/08/28 15:33:11;;;;;;;5.97;1.35;;;20.80;99.90;;;;;;4884793;29;20503;-83
2022/08/28 15:35:37;;;;;;;5.75;1.38;;;20.80;99.90;;;;;;4900394;29;20515;-83
2022/08/28 15:38:04;;;;;;;3.47;1.10;;;20.60;99.90;;;;;;4903692;29;20048;-82
2022/08/28 15:43:14;;;;;;;6.30;1.40;;;20.60;99.90;;;;;;4904382;29;20052;-84
2022/08/28 15:45:41;;;;;;;5.72;1.38;;;20.60;99.90;;;;;;4888737;29;20055;-80
2022/08/28 15:48:09;;;;;;;5.43;1.60;;;20.50;99.90;;;;;;4935478;29;20044;-81
2022/08/28 15:50:36;;;;;;;5.80;1.20;;;20.50;99.90;;;;;;4920994;29;20378;-79
2022/08/28 15:53:02;;;;;;;7.40;1.40;;;20.40;99.90;;;;;;4903912;29;20452;-81
2022/08/28 15:55:29;;;;;;;6.40;1.80;;;20.30;99.90;;;;;;4935271;29;20036;-81
2022/08/28 15:57:54;;;;;;;5.57;1.95;;;20.20;99.90;;;;;;4920660;29;20481;-83
2022/08/28 16:00:21;;;;;;;4.60;2.28;;;20.20;99.90;;;;;;4903274;29;20047;-82
2022/08/28 16:02:46;;;;;;;8.35;2.00;;;20.20;99.90;;;;;;4903761;29;20040;-79
2022/08/28 16:05:12;;;;;;;5.90;1.58;;;20.30;99.90;;;;;;4903727;29;20131;-83
2022/08/28 16:07:39;;;;;;;9.05;1.45;;;20.40;99.90;;;;;;4903559;29;20080;-80
2022/08/28 16:10:07;;;;;;;7.25;1.45;;;20.30;99.90;;;;;;4920451;29;20048;-81
2022/08/28 16:12:34;;;;;;;6.82;1.58;;;20.30;99.90;;;;;;4903311;29;20536;-82
2022/08/28 16:14:59;;;;;;;6.68;1.75;;;20.30;99.90;;;;;;4903333;29;20519;-83
2022/08/28 16:17:25;;;;;;;7.22;2.08;;;20.30;99.90;;;;;;4903180;29;20052;-82
2022/08/28 16:19:51;;;;;;;6.07;1.63;;;20.30;99.90;;;;;;4920415;29;20036;-82
2022/08/28 16:22:17;;;;;;;7.03;1.50;;;20.20;99.90;;;;;;4903164;29;20480;-82
2022/08/28 16:24:44;;;;;;;7.88;1.95;;;20.20;99.90;;;;;;4935181;29;20120;-82
2022/08/28 16:27:10;;;;;;;2.78;1.30;;;20.10;99.90;;;;;;4920037;29;20120;-83
2022/08/28 16:29:36;;;;;;;5.88;1.60;;;20.10;99.90;;;;;;4903520;29;20107;-82
2022/08/28 16:32:03;;;;;;;7.00;1.48;;;20.00;99.90;;;;;;4902703;29;20051;-81
2022/08/28 16:34:31;;;;;;;4.72;1.60;;;20.00;99.90;;;;;;4887318;29;20052;-84
2022/08/28 16:36:57;;;;;;;8.68;2.00;;;19.90;99.90;;;;;;4934039;29;20092;-79
2022/08/28 16:39:23;;;;;;;6.38;2.13;;;19.90;99.90;;;;;;4920121;29;20535;-82
2022/08/28 16:41:49;;;;;;;6.80;1.60;;;19.90;99.90;;;;;;4919601;29;20107;-81
2022/08/28 16:44:23;;;;;;;7.07;1.85;;;19.90;99.90;;;;;;4919558;29;20047;-78
2022/08/28 16:46:49;;;;;;;7.70;1.77;;;19.90;99.90;;;;;;4886802;29;20127;-82
2022/08/28 16:49:14;;;;;;;6.93;1.90;;;19.90;99.90;;;;;;4901032;29;20082;-81
2022/08/28 16:51:40;;;;;;;6.70;1.85;;;19.80;99.90;;;;;;4902041;29;20044;-81
2022/08/28 16:54:06;;;;;;;6.30;1.75;;;19.70;99.90;;;;;;4902166;29;20036;-81
2022/08/28 16:56:32;;;;;;;9.65;1.85;;;19.60;99.90;;;;;;4902238;29;20044;-81
2022/08/28 16:58:58;;;;;;;9.07;2.28;;;19.60;99.90;;;;;;4902044;29;20147;-80
2022/08/28 17:01:24;;;;;;;8.07;1.95;;;19.50;99.90;;;;;;4886380;29;20091;-80
2022/08/28 17:03:51;;;;;;;6.97;1.60;;;19.40;99.90;;;;;;4933556;29;20044;-80
2022/08/28 17:06:28;;;;;;;8.18;1.65;;;19.40;99.90;;;;;;4933591;29;20040;-83
2022/08/28 17:08:55;;;;;;;6.47;1.83;;;19.40;99.90;;;;;;4886546;29;20084;-81
2022/08/28 17:11:23;;;;;;;7.75;1.50;;;19.30;99.90;;;;;;4886736;29;20417;-80
2022/08/28 17:13:49;;;;;;;6.55;2.00;;;19.30;99.90;;;;;;4901921;29;20084;-82
2022/08/28 17:16:15;;;;;;;5.32;1.60;;;19.30;99.90;;;;;;4933739;29;20083;-83